Time;durP1;ratioP1;P1;durP2;ratioP2;P2;SDS_P1;SDS_P2;PMS_P1;PMS_P2;Temp;Humidity;BMP_temperature;BMP_pressure;BME280_temperature;BME280_humidity;BME280_pressure;Samples;Min_cycle;Max_cycle;Signal;HPM_P1;HPM_P2
2024/04/25 07:08:40;;;;;;;7.88;3.88;;;;;;;3.22;100.00;96472.25;5492854;25;20318;-59
2024/04/25 07:11:06;;;;;;;10.20;4.53;;;;;;;3.26;100.00;96472.59;5449916;25;20003;-58
2024/04/25 07:13:34;;;;;;;7.40;3.83;;;;;;;3.34;100.00;96466.09;5446565;26;20003;-59
2024/04/25 07:16:04;;;;;;;9.68;4.22;;;;;;;3.55;100.00;96475.47;5444284;26;20006;-58
2024/04/25 07:18:31;;;;;;;7.53;4.05;;;;;;;3.48;100.00;96466.72;5453444;26;20345;-61
2024/04/25 07:20:58;;;;;;;7.32;4.05;;;;;;;3.88;100.00;96465.28;5467067;26;20023;-62
2024/04/25 07:23:24;;;;;;;9.13;3.90;;;;;;;4.02;100.00;96469.38;5437919;26;20032;-57
2024/04/25 07:25:51;;;;;;;8.75;3.95;;;;;;;4.20;100.00;96464.16;5462432;26;20358;-58
2024/04/25 07:28:20;;;;;;;8.80;3.85;;;;;;;4.33;100.00;96463.06;5478802;26;19998;-58
2024/04/25 07:30:47;;;;;;;8.63;3.28;;;;;;;4.36;100.00;96466.13;5462675;25;20003;-58
2024/04/25 07:33:13;;;;;;;11.55;3.72;;;;;;;4.52;100.00;96461.91;5451486;26;20007;-58
2024/04/25 07:35:40;;;;;;;6.90;3.95;;;;;;;4.45;100.00;96469.25;5454621;26;20012;-59
2024/04/25 07:38:07;;;;;;;11.90;3.85;;;;;;;4.74;100.00;96472.00;5461270;26;20002;-60
2024/04/25 07:40:36;;;;;;;6.93;3.70;;;;;;;4.61;100.00;96465.03;5459173;26;20005;-59
2024/04/25 07:43:04;;;;;;;7.28;3.45;;;;;;;4.49;100.00;96462.38;5464591;26;19998;-60
2024/04/25 07:45:31;;;;;;;7.97;3.30;;;;;;;4.66;100.00;96467.84;5456704;26;20013;-59
2024/04/25 07:47:58;;;;;;;7.95;3.83;;;;;;;4.66;100.00;96467.00;5459731;26;19999;-60
2024/04/25 07:50:25;;;;;;;7.28;3.13;;;;;;;4.55;100.00;96465.97;5448171;26;19999;-60
2024/04/25 07:52:51;;;;;;;5.05;3.17;;;;;;;4.50;100.00;96464.00;5457879;26;19999;-61
2024/04/25 07:55:18;;;;;;;4.97;2.92;;;;;;;4.54;100.00;96475.88;5458207;26;20028;-60
2024/04/25 07:57:45;;;;;;;5.85;2.55;;;;;;;4.69;100.00;96475.38;5455005;26;20003;-61
2024/04/25 08:00:12;;;;;;;7.28;2.78;;;;;;;4.75;100.00;96480.88;5460964;26;20006;-61
2024/04/25 08:02:38;;;;;;;8.75;3.17;;;;;;;4.92;100.00;96467.53;5443166;26;20014;-61
2024/04/25 08:05:06;;;;;;;5.18;3.05;;;;;;;4.83;100.00;96475.13;5457978;26;20009;-61
2024/04/25 08:07:37;;;;;;;6.72;3.03;;;;;;;4.71;100.00;96474.34;5450285;26;20007;-62
2024/04/25 08:10:06;;;;;;;5.97;3.03;;;;;;;5.00;100.00;96469.84;5453473;26;20907;-61
2024/04/25 08:12:33;;;;;;;4.53;2.88;;;;;;;5.00;100.00;96472.53;5452674;26;20013;-60
2024/04/25 08:15:00;;;;;;;9.00;2.80;;;;;;;5.19;100.00;96462.41;5448235;26;20002;-61
2024/04/25 08:17:27;;;;;;;7.93;3.20;;;;;;;4.99;100.00;96460.16;5450762;26;20009;-61
2024/04/25 08:19:54;;;;;;;8.93;2.85;;;;;;;4.99;100.00;96462.84;5437629;26;20011;-60
2024/04/25 08:22:23;;;;;;;6.47;2.80;;;;;;;4.88;100.00;96456.47;5438588;26;20453;-61
2024/04/25 08:24:50;;;;;;;6.90;3.08;;;;;;;4.98;100.00;96466.59;5434750;26;19998;-60
2024/04/25 08:27:16;;;;;;;11.35;2.78;;;;;;;4.85;100.00;96462.28;5449833;26;20062;-62
2024/04/25 08:29:43;;;;;;;6.72;2.75;;;;;;;5.25;100.00;96468.69;5429837;26;20013;-59
2024/04/25 08:32:10;;;;;;;8.25;3.15;;;;;;;5.16;100.00;96470.16;5433688;26;20013;-59
2024/04/25 08:34:36;;;;;;;6.28;2.67;;;;;;;5.56;100.00;96471.94;5434679;26;20002;-60
2024/04/25 08:37:04;;;;;;;6.85;2.17;;;;;;;5.77;100.00;96463.41;5440907;26;20716;-59
2024/04/25 08:39:30;;;;;;;7.38;2.47;;;;;;;5.63;100.00;96462.91;5444692;26;20003;-61
2024/04/25 08:41:58;;;;;;;8.50;4.05;;;;;;;5.66;100.00;96470.47;5437888;26;20003;-61
2024/04/25 08:44:25;;;;;;;4.85;2.05;;;;;;;6.01;100.00;96464.03;5434959;26;20021;-61
2024/04/25 08:46:53;;;;;;;5.82;2.38;;;;;;;6.26;100.00;96462.03;5435675;26;20009;-58
2024/04/25 08:49:22;;;;;;;9.80;2.30;;;;;;;5.81;100.00;96465.38;5431472;26;20007;-60
2024/04/25 08:51:51;;;;;;;7.43;2.42;;;;;;;6.12;100.00;96457.00;5435261;26;20092;-60
2024/04/25 08:54:21;;;;;;;5.57;2.00;;;;;;;6.41;100.00;96453.38;5441057;26;20013;-58
2024/04/25 08:56:48;;;;;;;4.97;1.90;;;;;;;6.11;100.00;96464.25;5442053;26;20011;-57
2024/04/25 08:59:14;;;;;;;7.22;2.20;;;;;;;5.84;100.00;96464.06;5442622;26;19999;-60
2024/04/25 09:01:42;;;;;;;4.10;1.80;;;;;;;6.59;100.00;96458.47;5437648;26;20576;-59
2024/04/25 09:04:14;;;;;;;4.82;1.60;;;;;;;6.40;100.00;96467.88;5431069;26;20097;-61
2024/04/25 09:06:41;;;;;;;5.25;1.45;;;;;;;6.37;100.00;96459.25;5440880;26;20013;-61
2024/04/25 09:09:10;;;;;;;4.32;1.45;;;;;;;6.62;100.00;96454.47;5441214;26;20007;-60
2024/04/25 09:11:38;;;;;;;5.03;1.33;;;;;;;6.63;100.00;96461.47;5427544;26;20044;-60
2024/04/25 09:14:04;;;;;;;5.72;2.28;;;;;;;6.52;100.00;96459.72;5438061;26;19998;-59
2024/04/25 09:16:36;;;;;;;5.10;1.42;;;;;;;6.94;100.00;96453.78;5426762;26;20018;-63
2024/04/25 09:19:03;;;;;;;;;;;;;;;6.67;100.00;96456.41;5438221;26;20013;-63
2024/04/25 09:21:29;;;;;;;3.53;1.25;;;;;;;6.68;100.00;96450.78;5432477;26;19931;-63
2024/04/25 09:23:56;;;;;;;4.20;1.17;;;;;;;6.44;100.00;96445.63;5436822;26;20009;-63
2024/04/25 09:26:26;;;;;;;5.05;1.48;;;;;;;6.36;100.00;96446.03;5455152;26;20002;-61
2024/04/25 09:28:53;;;;;;;3.67;1.35;;;;;;;6.38;100.00;96442.03;5432969;26;20083;-62
2024/04/25 09:31:19;;;;;;;7.15;1.92;;;;;;;6.26;100.00;96452.09;5430906;26;20038;-60
2024/04/25 09:33:46;;;;;;;5.65;1.40;;;;;;;5.97;100.00;96441.44;5439079;26;20829;-58
2024/04/25 09:36:13;;;;;;;4.72;1.35;;;;;;;6.07;100.00;96443.47;5433017;26;20009;-57
2024/04/25 09:38:40;;;;;;;4.65;1.38;;;;;;;6.04;100.00;96441.31;5428469;26;20005;-60
2024/04/25 09:41:08;;;;;;;6.10;1.65;;;;;;;6.14;100.00;96436.06;5428894;26;20002;-61
2024/04/25 09:43:34;;;;;;;6.10;1.98;;;;;;;6.23;100.00;96428.41;5439412;26;20226;-61
2024/04/25 09:46:05;;;;;;;5.13;1.20;;;;;;;6.30;100.00;96426.34;5436434;26;20006;-61
2024/04/25 09:48:35;;;;;;;4.67;1.33;;;;;;;6.44;100.00;96426.81;5439249;26;20021;-60
2024/04/25 09:51:28;;;;;;;6.90;1.48;;;;;;;6.80;97.17;96422.94;5435874;26;20236;-61
2024/04/25 09:53:58;;;;;;;5.13;1.40;;;;;;;6.92;99.53;96425.50;5404656;26;19994;-61
2024/04/25 09:56:28;;;;;;;4.40;1.10;;;;;;;6.84;90.77;96416.81;5449052;26;20010;-62
2024/04/25 09:59:06;;;;;;;3.38;1.10;;;;;;;6.64;93.92;96412.78;5436717;26;20800;-59
2024/04/25 10:01:34;;;;;;;6.13;1.55;;;;;;;6.99;93.28;96418.03;5427278;26;20003;-59
2024/04/25 10:04:01;;;;;;;4.40;1.33;;;;;;;7.30;88.38;96418.38;5446781;26;20068;-60
2024/04/25 10:06:29;;;;;;;4.30;1.20;;;;;;;7.01;88.56;96421.31;5450134;26;20002;-60
2024/04/25 10:08:57;;;;;;;5.85;1.50;;;;;;;7.13;90.92;96427.34;5427025;26;20007;-59
2024/04/25 10:11:28;;;;;;;5.30;1.52;;;;;;;7.58;91.16;96424.53;5423443;26;19999;-59
2024/04/25 10:13:55;;;;;;;3.00;1.27;;;;;;;7.44;86.39;96423.34;5440331;26;20010;-60
2024/04/25 10:16:22;;;;;;;2.33;1.13;;;;;;;7.84;85.12;96424.75;5449063;26;20009;-59
2024/04/25 10:18:49;;;;;;;3.38;1.17;;;;;;;7.68;77.76;96430.00;5438117;26;20003;-60
2024/04/25 10:21:16;;;;;;;4.20;1.45;;;;;;;7.21;85.73;96425.25;5461991;26;20345;-60
2024/04/25 10:23:42;;;;;;;3.42;1.50;;;;;;;7.14;87.00;96415.50;5457210;26;20016;-61
2024/04/25 10:26:20;;;;;;;6.90;1.75;;;;;;;7.76;87.98;96411.75;5447336;26;20656;-61
2024/04/25 10:29:08;;;;;;;2.72;1.42;;;;;;;7.42;84.48;96416.31;5430243;26;19995;-59
2024/04/25 10:31:39;;;;;;;4.18;1.40;;;;;;;7.25;83.83;96418.28;5436223;26;20033;-59
2024/04/25 10:34:07;;;;;;;4.72;1.30;;;;;;;7.38;81.79;96417.88;5446984;26;20069;-57
2024/04/25 10:36:36;;;;;;;2.25;1.10;;;;;;;7.47;82.40;96410.16;5438708;26;20432;-57
2024/04/25 10:39:02;;;;;;;3.20;1.20;;;;;;;7.52;81.31;96404.03;5427605;26;20011;-59
2024/04/25 10:41:36;;;;;;;3.75;1.48;;;;;;;7.91;79.96;96411.88;5439761;26;20013;-61
2024/04/25 10:44:08;;;;;;;3.13;1.35;;;;;;;8.07;77.84;96404.69;5444642;26;20007;-62
2024/04/25 10:46:36;;;;;;;2.30;1.05;;;;;;;7.98;75.59;96400.03;5437712;26;20042;-58
2024/04/25 10:49:07;;;;;;;5.50;1.83;;;;;;;7.51;80.52;96394.28;5417456;26;20007;-59
2024/04/25 10:51:37;;;;;;;2.53;1.35;;;;;;;7.01;81.01;96405.94;5429978;26;20007;-57
2024/04/25 10:54:04;;;;;;;4.22;1.60;;;;;;;6.88;87.69;96393.72;5428058;26;20011;-59
2024/04/25 10:56:31;;;;;;;2.50;1.30;;;;;;;6.98;87.16;96398.41;5431338;26;20013;-60
2024/04/25 10:58:57;;;;;;;4.68;1.42;;;;;;;7.03;85.81;96401.13;5437243;26;20022;-58
2024/04/25 11:01:28;;;;;;;4.65;1.63;;;;;;;6.92;89.65;96402.09;5429650;26;20003;-61
2024/04/25 11:03:59;;;;;;;5.65;1.80;;;;;;;7.08;89.32;96403.06;5406777;26;20351;-61
2024/04/25 11:06:29;;;;;;;4.57;1.73;;;;;;;7.50;89.36;96398.06;5425252;26;20412;-60
2024/04/25 11:08:55;;;;;;;2.80;1.20;;;;;;;7.66;83.84;96401.69;5438084;26;20014;-61
2024/04/25 11:11:22;;;;;;;3.65;1.52;;;;;;;7.97;85.69;96388.47;5440557;26;19995;-61
2024/04/25 11:13:51;;;;;;;2.20;0.90;;;;;;;8.33;82.13;96394.06;5429966;26;20011;-59
2024/04/25 11:16:21;;;;;;;4.15;1.73;;;;;;;8.51;75.47;96388.50;5430086;26;20494;-58
2024/04/25 11:18:49;;;;;;;4.10;1.27;;;;;;;7.96;76.69;96388.72;5423515;26;20714;-61
2024/04/25 11:21:24;;;;;;;4.60;1.38;;;;;;;8.31;77.25;96387.31;5429961;26;20007;-60
2024/04/25 11:23:51;;;;;;;3.95;1.27;;;;;;;8.94;76.89;96385.69;5427987;26;20004;-60
2024/04/25 11:26:20;;;;;;;2.70;1.20;;;;;;;8.89;72.46;96375.72;5409067;26;20002;-59
2024/04/25 11:28:47;;;;;;;3.25;1.35;;;;;;;9.15;70.79;96385.75;5425577;26;19995;-57
2024/04/25 11:31:14;;;;;;;2.78;1.40;;;;;;;9.20;71.32;96383.88;5443781;26;19999;-59
2024/04/25 11:33:42;;;;;;;4.78;2.13;;;;;;;9.36;66.54;96384.72;5433657;26;20474;-58
2024/04/25 11:36:09;;;;;;;3.03;1.30;;;;;;;8.79;74.44;96379.19;5432671;26;20000;-57
2024/04/25 11:38:35;;;;;;;2.95;1.40;;;;;;;9.32;70.53;96363.91;5438297;26;20397;-59
2024/04/25 11:41:04;;;;;;;2.55;1.15;;;;;;;9.06;72.89;96377.34;5436359;26;20053;-61
2024/04/25 11:43:30;;;;;;;3.38;1.10;;;;;;;9.61;65.54;96369.59;5429108;26;20078;-57
2024/04/25 11:45:57;;;;;;;3.65;1.63;;;;;;;9.74;70.06;96367.44;5432210;26;19995;-59
2024/04/25 11:48:26;;;;;;;2.80;1.20;;;;;;;9.13;72.47;96372.50;5437480;26;20046;-59
2024/04/25 11:50:53;;;;;;;3.10;1.42;;;;;;;8.10;73.76;96375.59;5431728;26;20027;-57
2024/04/25 11:53:19;;;;;;;4.57;1.27;;;;;;;8.09;75.26;96371.25;5438980;26;19999;-59
2024/04/25 11:55:46;;;;;;;4.78;1.40;;;;;;;7.65;79.39;96370.44;5453937;26;20007;-60
2024/04/25 11:58:13;;;;;;;2.58;1.17;;;;;;;7.41;85.29;96374.28;5437000;26;20538;-59
2024/04/25 12:00:40;;;;;;;5.40;1.60;;;;;;;7.29;96.88;96381.72;5433363;26;20050;-60
2024/04/25 12:03:06;;;;;;;3.13;1.45;;;;;;;7.13;99.00;96384.28;5409329;26;20012;-60
2024/04/25 12:05:33;;;;;;;5.90;1.50;;;;;;;7.01;100.00;96372.84;5400991;26;20014;-58
2024/04/25 12:08:03;;;;;;;3.53;1.70;;;;;;;6.85;100.00;96375.38;5369212;26;20021;-60
2024/04/25 12:10:30;;;;;;;6.82;1.88;;;;;;;6.88;100.00;96372.19;5395498;26;20014;-55
2024/04/25 12:12:57;;;;;;;2.95;1.50;;;;;;;6.90;100.00;96372.72;5397459;26;20022;-56
2024/04/25 12:15:24;;;;;;;3.80;1.42;;;;;;;6.92;99.60;96369.78;5430627;26;19999;-59
2024/04/25 12:17:52;;;;;;;4.15;1.50;;;;;;;7.11;98.01;96364.06;5433892;26;20029;-59
2024/04/25 12:20:19;;;;;;;4.88;1.40;;;;;;;7.63;94.46;96376.09;5425185;26;20587;-58
2024/04/25 12:22:46;;;;;;;3.25;1.48;;;;;;;7.18;90.72;96363.88;5456049;26;20013;-57
2024/04/25 12:25:12;;;;;;;2.65;1.20;;;;;;;7.22;83.22;96359.59;5451850;26;20017;-60
2024/04/25 12:27:39;;;;;;;5.88;1.60;;;;;;;7.60;84.63;96367.72;5423261;26;21359;-59
2024/04/25 12:30:06;;;;;;;4.05;1.40;;;;;;;7.98;81.40;96365.81;5405051;26;20379;-56
2024/04/25 12:32:33;;;;;;;3.67;1.30;;;;;;;8.46;77.81;96357.72;5438656;26;20134;-58
2024/04/25 12:35:00;;;;;;;5.20;1.33;;;;;;;8.37;79.38;96364.66;5446969;26;20064;-58
2024/04/25 12:37:26;;;;;;;3.67;1.27;;;;;;;8.16;79.51;96359.19;5437314;26;20005;-57
2024/04/25 12:39:53;;;;;;;3.38;1.33;;;;;;;8.26;78.92;96358.41;5446913;26;20009;-59
2024/04/25 12:42:22;;;;;;;4.88;1.65;;;;;;;7.87;80.28;96359.56;5429730;26;20017;-60
2024/04/25 12:44:52;;;;;;;3.75;1.67;;;;;;;7.32;79.32;96361.53;5437073;26;19998;-61
2024/04/25 12:47:19;;;;;;;3.20;1.35;;;;;;;7.68;79.59;96353.75;5427946;26;20049;-60
2024/04/25 12:49:46;;;;;;;1.75;1.00;;;;;;;8.12;75.71;96354.56;5432731;26;20084;-61
2024/04/25 12:52:13;;;;;;;2.85;1.17;;;;;;;8.01;72.35;96351.00;5443398;26;19995;-60
2024/04/25 12:54:40;;;;;;;1.98;0.90;;;;;;;7.94;73.17;96356.63;5434686;26;20010;-61
2024/04/25 12:57:06;;;;;;;5.30;1.35;;;;;;;8.41;73.75;96344.19;5435656;26;19996;-59
2024/04/25 12:59:33;;;;;;;2.75;1.40;;;;;;;8.84;69.81;96352.22;5445538;26;20487;-61
2024/04/25 13:02:00;;;;;;;2.80;1.60;;;;;;;8.60;71.81;96354.56;5454751;26;20015;-60
2024/04/25 13:04:27;;;;;;;3.92;1.92;;;;;;;8.48;72.74;96343.16;5447556;26;20532;-60
2024/04/25 13:06:53;;;;;;;2.72;1.25;;;;;;;8.42;69.90;96347.72;5432966;26;20006;-60
2024/04/25 13:09:20;;;;;;;1.90;0.98;;;;;;;8.92;67.58;96350.06;5437044;26;20075;-61
2024/04/25 13:11:47;;;;;;;4.13;1.63;;;;;;;9.91;65.81;96350.13;5426096;26;20011;-60
2024/04/25 13:14:13;;;;;;;1.67;1.05;;;;;;;11.24;60.21;96352.56;5428544;26;20017;-60
2024/04/25 13:16:40;;;;;;;2.90;1.20;;;;;;;10.09;61.84;96343.31;5441283;26;19998;-61
2024/04/25 13:19:08;;;;;;;1.63;1.13;;;;;;;10.38;55.44;96342.69;5438893;26;20021;-60
2024/04/25 13:21:38;;;;;;;2.55;1.35;;;;;;;10.70;56.10;96343.41;5456394;26;20018;-60
2024/04/25 13:24:05;;;;;;;2.53;1.10;;;;;;;10.43;55.77;96339.16;5450604;26;20005;-61
2024/04/25 13:26:33;;;;;;;2.42;1.10;;;;;;;10.92;57.02;96343.81;5438267;26;20009;-61
2024/04/25 13:29:00;;;;;;;2.40;0.90;;;;;;;11.60;56.05;96350.69;5437060;26;20416;-60
2024/04/25 13:31:27;;;;;;;3.40;1.10;;;;;;;12.13;50.97;96336.41;5436739;26;20208;-59
2024/04/25 13:33:54;;;;;;;3.25;1.20;;;;;;;11.99;51.41;96338.94;5447786;26;20041;-61
2024/04/25 13:36:21;;;;;;;2.17;1.00;;;;;;;10.64;56.15;96323.66;5449461;26;20060;-61
2024/04/25 13:38:48;;;;;;;3.22;1.17;;;;;;;10.07;56.68;96318.44;5454847;26;20046;-61
2024/04/25 13:41:15;;;;;;;3.50;1.27;;;;;;;10.41;55.51;96334.84;5464223;26;20442;-60
2024/04/25 13:43:42;;;;;;;3.45;1.17;;;;;;;9.60;60.00;96334.72;5446459;26;20003;-60
2024/04/25 13:46:08;;;;;;;2.17;1.20;;;;;;;8.90;63.81;96323.34;5463462;26;20014;-61
2024/04/25 13:48:35;;;;;;;4.70;1.50;;;;;;;8.44;64.64;96321.31;5455981;26;20010;-61
2024/04/25 13:51:02;;;;;;;2.95;1.13;;;;;;;8.38;64.65;96327.72;5451601;26;20003;-59
2024/04/25 13:53:29;;;;;;;3.80;1.23;;;;;;;8.42;66.73;96321.56;5458331;26;20523;-60
2024/04/25 13:55:56;;;;;;;3.55;1.13;;;;;;;8.37;67.35;96318.03;5439985;26;20045;-60
2024/04/25 13:58:23;;;;;;;2.03;1.17;;;;;;;7.92;70.41;96323.72;5449846;26;20013;-60
2024/04/25 14:00:50;;;;;;;3.13;1.30;;;;;;;7.51;76.11;96330.47;5455100;26;19998;-61
2024/04/25 14:03:17;;;;;;;5.88;2.33;;;;;;;7.37;77.67;96326.59;5448222;26;20007;-60
2024/04/25 14:05:44;;;;;;;4.07;1.05;;;;;;;7.43;76.39;96322.88;5454999;26;19995;-60
2024/04/25 14:08:11;;;;;;;6.15;1.30;;;;;;;7.49;81.13;96323.72;5449415;26;20878;-60
2024/04/25 14:10:38;;;;;;;4.78;1.80;;;;;;;7.68;80.10;96316.84;5466024;26;20002;-61
2024/04/25 14:13:04;;;;;;;5.95;1.95;;;;;;;7.99;80.13;96320.81;5448146;26;19999;-60
2024/04/25 14:15:31;;;;;;;4.53;1.80;;;;;;;7.99;77.58;96321.63;5458590;26;20422;-61
2024/04/25 14:17:58;;;;;;;6.68;2.25;;;;;;;7.96;78.01;96322.13;5440553;26;20003;-60
2024/04/25 14:20:25;;;;;;;7.57;3.35;;;;;;;8.17;75.62;96308.75;5440793;26;19999;-60
2024/04/25 14:22:51;;;;;;;4.57;1.92;;;;;;;8.27;74.95;96303.44;5433162;26;20084;-60
2024/04/25 14:30:48;;;;;;;2.22;1.20;;;;;;;9.07;66.43;96306.88;5437753;26;20013;-60
2024/04/25 14:33:15;;;;;;;4.10;1.35;;;;;;;9.39;67.51;96315.81;5441636;26;20094;-60
2024/04/25 14:35:42;;;;;;;5.57;1.58;;;;;;;9.74;63.71;96316.06;5441472;26;20244;-60
2024/04/25 14:38:10;;;;;;;2.80;1.27;;;;;;;10.09;63.94;96318.97;5438296;26;20801;-60
2024/04/25 14:40:36;;;;;;;2.58;1.30;;;;;;;9.82;66.96;96309.28;5440135;26;20010;-60
2024/04/25 14:43:03;;;;;;;4.13;1.60;;;;;;;9.68;63.20;96311.75;5436060;26;20026;-60
2024/04/25 14:45:30;;;;;;;4.85;1.58;;;;;;;9.56;64.75;96298.50;5433145;26;20009;-60
2024/04/25 14:47:56;;;;;;;6.47;1.98;;;;;;;9.10;66.18;96292.84;5424351;26;20620;-60
2024/04/25 14:50:23;;;;;;;5.90;1.63;;;;;;;9.40;65.70;96295.81;5436489;26;20013;-61
2024/04/25 14:52:50;;;;;;;2.65;1.27;;;;;;;9.48;65.69;96300.69;5443239;26;20495;-61
2024/04/25 14:55:16;;;;;;;3.58;1.15;;;;;;;9.27;65.55;96299.06;5446636;26;20582;-61
2024/04/25 14:57:44;;;;;;;5.15;1.55;;;;;;;9.49;65.91;96293.38;5444354;26;20052;-61
2024/04/25 15:00:12;;;;;;;3.38;1.38;;;;;;;9.24;62.98;96287.72;5438155;26;20009;-61
2024/04/25 15:02:38;;;;;;;4.78;1.45;;;;;;;9.22;66.44;96291.78;5423679;26;20028;-61
2024/04/25 15:05:05;;;;;;;3.08;1.30;;;;;;;9.28;65.04;96287.19;5436678;26;20081;-61
2024/04/25 15:07:34;;;;;;;4.70;1.80;;;;;;;8.86;66.35;96281.75;5445378;26;20021;-61
2024/04/25 15:10:01;;;;;;;4.22;2.38;;;;;;;8.76;67.13;96284.44;5431779;26;20006;-61
2024/04/25 15:12:30;;;;;;;3.58;1.30;;;;;;;8.85;70.33;96288.25;5432893;26;20013;-61
2024/04/25 15:14:57;;;;;;;3.63;1.27;;;;;;;8.29;69.88;96292.38;5422004;26;19999;-61
2024/04/25 15:17:41;;;;;;;4.10;1.67;;;;;;;8.05;70.42;96290.94;5436192;26;20003;-61
2024/04/25 15:20:10;;;;;;;2.83;1.30;;;;;;;8.20;71.06;96295.59;5414960;26;20011;-61
2024/04/25 15:22:36;;;;;;;3.25;1.45;;;;;;;8.25;70.65;96285.91;5447793;26;20018;-62
2024/04/25 15:25:03;;;;;;;4.00;2.38;;;;;;;8.26;71.90;96296.38;5440698;26;20107;-60
2024/04/25 15:27:30;;;;;;;3.75;1.10;;;;;;;8.52;71.22;96288.38;5428748;26;20102;-60
2024/04/25 15:29:57;;;;;;;4.70;1.23;;;;;;;8.26;73.09;96290.19;5413272;26;20046;-61
2024/04/25 15:32:25;;;;;;;4.85;1.48;;;;;;;8.08;72.07;96289.59;5442305;26;20523;-60
2024/04/25 15:34:52;;;;;;;3.33;1.38;;;;;;;7.89;72.46;96295.41;5439769;26;20022;-61
2024/04/25 15:37:19;;;;;;;3.38;1.40;;;;;;;7.96;73.35;96294.38;5445868;26;19995;-60
2024/04/25 15:39:48;;;;;;;6.45;1.75;;;;;;;7.76;73.57;96293.19;5444137;26;20485;-61
2024/04/25 15:42:15;;;;;;;2.75;1.13;;;;;;;7.79;73.17;96279.19;5425695;26;20529;-61
2024/04/25 15:44:41;;;;;;;4.65;1.40;;;;;;;7.98;72.95;96276.88;5456087;26;20030;-61
2024/04/25 15:47:09;;;;;;;3.45;1.13;;;;;;;7.94;72.82;96283.84;5445235;26;20235;-61
2024/04/25 15:49:36;;;;;;;3.45;1.27;;;;;;;8.11;73.58;96280.97;5452662;26;20006;-61
2024/04/25 15:52:03;;;;;;;2.70;1.27;;;;;;;8.16;73.86;96277.47;5439606;26;20640;-61
2024/04/25 15:54:30;;;;;;;4.68;1.42;;;;;;;8.14;72.68;96280.44;5438179;26;20329;-61
2024/04/25 15:56:56;;;;;;;2.17;1.10;;;;;;;8.30;73.16;96277.81;5440154;26;20022;-61
2024/04/25 15:59:23;;;;;;;3.13;1.15;;;;;;;8.27;71.19;96283.72;5441075;26;20482;-61
2024/04/25 16:01:50;;;;;;;3.60;1.25;;;;;;;8.19;74.47;96279.66;5442578;26;20003;-61
2024/04/25 16:04:17;;;;;;;3.72;1.40;;;;;;;8.41;74.14;96275.97;5442940;26;20022;-60
2024/04/25 16:06:43;;;;;;;2.47;1.10;;;;;;;8.55;69.32;96274.41;5435163;26;20031;-59
2024/04/25 16:09:10;;;;;;;3.63;1.40;;;;;;;8.12;69.95;96271.00;5441636;26;20075;-60
2024/04/25 16:11:37;;;;;;;4.15;1.73;;;;;;;8.13;68.83;96273.44;5440539;26;20011;-61
2024/04/25 16:14:04;;;;;;;3.10;1.52;;;;;;;8.15;69.03;96273.97;5437396;26;20508;-59
2024/04/25 16:16:30;;;;;;;4.00;2.25;;;;;;;8.43;66.79;96271.09;5438087;26;20003;-61
2024/04/25 16:18:57;;;;;;;3.25;1.25;;;;;;;8.48;67.27;96267.63;5433976;26;20011;-63
2024/04/25 16:21:24;;;;;;;2.83;1.15;;;;;;;8.85;67.82;96264.75;5435980;26;19998;-60
2024/04/25 16:23:50;;;;;;;3.45;1.23;;;;;;;8.62;67.52;96257.16;5441637;26;19999;-59
2024/04/25 16:26:17;;;;;;;2.95;1.33;;;;;;;8.58;66.33;96265.78;5448916;26;20814;-61
2024/04/25 16:28:44;;;;;;;3.92;1.30;;;;;;;8.62;64.73;96260.66;5445269;26;20078;-61
2024/04/25 16:31:11;;;;;;;2.38;1.10;;;;;;;8.33;65.99;96261.09;5445472;26;19995;-60
2024/04/25 16:33:37;;;;;;;1.92;1.10;;;;;;;8.35;67.54;96269.72;5428184;26;20457;-60
2024/04/25 16:36:11;;;;;;;2.85;1.40;;;;;;;8.08;68.46;96257.25;5440109;26;20091;-60
2024/04/25 16:38:38;;;;;;;3.08;1.10;;;;;;;8.21;68.16;96258.63;5442032;26;19999;-61
2024/04/25 16:41:05;;;;;;;2.55;1.20;;;;;;;8.25;69.63;96262.41;5436715;26;19999;-60
2024/04/25 16:43:33;;;;;;;3.58;1.58;;;;;;;7.83;71.62;96266.81;5431169;26;20011;-60
2024/04/25 16:46:00;;;;;;;1.58;1.00;;;;;;;7.79;69.80;96263.03;5438749;26;20535;-59
2024/04/25 16:48:26;;;;;;;3.78;1.60;;;;;;;8.02;68.53;96261.78;5442368;26;20627;-60
2024/04/25 16:50:53;;;;;;;2.85;1.10;;;;;;;8.06;68.86;96265.59;5436780;26;20017;-60
2024/04/25 16:53:20;;;;;;;2.85;1.20;;;;;;;7.76;69.88;96269.75;5423054;26;20065;-59
2024/04/25 16:55:49;;;;;;;3.97;1.15;;;;;;;7.59;70.49;96271.81;5405161;26;21831;-59
2024/04/25 16:58:16;;;;;;;3.65;1.48;;;;;;;7.49;70.00;96269.84;5437305;26;20007;-60
2024/04/25 17:00:43;;;;;;;4.15;1.33;;;;;;;7.34;71.71;96268.66;5440976;26;20003;-61
2024/04/25 17:03:09;;;;;;;5.03;2.30;;;;;;;7.15;72.26;96266.38;5438963;26;20002;-60
2024/04/25 17:05:36;;;;;;;3.90;1.30;;;;;;;7.08;72.64;96267.66;5437210;26;20031;-61
2024/04/25 17:08:03;;;;;;;3.08;1.20;;;;;;;7.23;73.77;96273.16;5440117;26;20687;-61
2024/04/25 17:10:30;;;;;;;3.05;1.33;;;;;;;7.29;74.26;96269.44;5444239;26;20006;-60
2024/04/25 17:12:56;;;;;;;3.20;1.05;;;;;;;7.21;74.66;96266.41;5441095;26;19995;-60
2024/04/25 17:15:23;;;;;;;2.35;1.17;;;;;;;7.12;77.60;96261.50;5439856;26;20026;-60
2024/04/25 17:17:51;;;;;;;3.25;1.45;;;;;;;7.06;80.01;96261.72;5441070;26;20017;-60
2024/04/25 17:20:18;;;;;;;3.10;1.23;;;;;;;6.97;81.64;96259.50;5433923;26;20084;-61
2024/04/25 17:22:45;;;;;;;5.53;1.60;;;;;;;6.98;85.48;96265.69;5442083;26;20614;-61
2024/04/25 17:25:12;;;;;;;5.25;2.05;;;;;;;6.67;92.23;96260.84;5436925;26;20010;-60
2024/04/25 17:27:40;;;;;;;3.05;1.23;;;;;;;6.61;95.06;96261.88;5440897;26;20002;-60
2024/04/25 17:30:07;;;;;;;2.85;1.35;;;;;;;6.69;94.76;96265.97;5439963;26;20070;-60
2024/04/25 17:32:33;;;;;;;6.18;1.88;;;;;;;6.74;94.25;96268.69;5439350;26;20019;-60
2024/04/25 17:35:00;;;;;;;3.40;1.50;;;;;;;6.75;93.28;96260.38;5438061;26;19999;-60
2024/04/25 17:37:31;;;;;;;5.13;1.73;;;;;;;6.81;93.61;96263.13;5432639;26;20802;-60
2024/04/25 17:39:58;;;;;;;5.30;2.58;;;;;;;6.69;97.92;96263.28;5432822;26;20022;-60
2024/04/25 17:42:25;;;;;;;7.05;3.25;;;;;;;6.74;96.46;96266.84;5403828;26;20022;-60
2024/04/25 17:44:54;;;;;;;4.63;2.38;;;;;;;6.90;97.00;96269.69;5397191;26;20000;-60
2024/04/25 17:47:22;;;;;;;5.32;2.08;;;;;;;6.87;97.15;96271.00;5436866;26;20072;-60
2024/04/25 17:49:49;;;;;;;11.38;6.28;;;;;;;6.58;100.00;96273.94;5420181;26;20002;-60
2024/04/25 17:52:15;;;;;;;6.80;3.10;;;;;;;6.58;100.00;96267.75;5424859;26;20050;-60
2024/04/25 17:54:42;;;;;;;3.78;2.10;;;;;;;6.53;100.00;96265.00;5439175;26;19998;-60
2024/04/25 17:57:08;;;;;;;5.40;2.13;;;;;;;6.52;100.00;96268.78;5429359;26;20003;-60
2024/04/25 17:59:35;;;;;;;5.30;2.00;;;;;;;6.37;100.00;96271.03;5436502;26;20011;-60
2024/04/25 18:02:04;;;;;;;9.27;3.85;;;;;;;6.19;100.00;96263.31;5432824;26;20022;-60
2024/04/25 18:04:31;;;;;;;4.40;2.03;;;;;;;5.81;100.00;96274.63;5443706;26;20084;-60
2024/04/25 18:07:01;;;;;;;4.53;1.90;;;;;;;5.75;100.00;96272.13;5439956;26;20014;-60
2024/04/25 18:09:28;;;;;;;5.07;2.47;;;;;;;5.69;100.00;96269.38;5426131;26;20041;-60
2024/04/25 18:11:54;;;;;;;4.63;1.88;;;;;;;5.78;100.00;96277.00;5450434;26;20485;-60
2024/04/25 18:14:21;;;;;;;4.72;2.50;;;;;;;5.63;100.00;96274.94;5444306;26;20011;-60
2024/04/25 18:16:48;;;;;;;5.35;2.00;;;;;;;5.58;100.00;96276.47;5438395;26;19999;-60
2024/04/25 18:19:15;;;;;;;7.60;4.88;;;;;;;5.50;100.00;96273.41;5437335;26;20007;-60
2024/04/25 18:21:41;;;;;;;5.55;2.28;;;;;;;5.29;100.00;96268.53;5435586;26;19995;-60
2024/04/25 18:24:10;;;;;;;5.15;2.20;;;;;;;5.16;100.00;96271.56;5426947;26;20031;-60
2024/04/25 18:26:36;;;;;;;16.50;3.83;;;;;;;4.81;100.00;96276.91;5426277;26;20059;-60
2024/04/25 18:29:03;;;;;;;4.10;2.28;;;;;;;4.64;100.00;96284.91;5429688;26;20007;-60
2024/04/25 18:31:30;;;;;;;20.90;11.95;;;;;;;4.43;100.00;96276.47;5432900;26;20009;-59
2024/04/25 18:33:58;;;;;;;8.10;4.35;;;;;;;4.22;100.00;96274.47;5405372;26;20478;-60
2024/04/25 18:36:24;;;;;;;4.25;2.10;;;;;;;4.02;100.00;96265.78;5394194;26;20003;-60
2024/04/25 18:38:51;;;;;;;5.90;2.78;;;;;;;3.99;100.00;96271.63;5420487;26;20008;-60
2024/04/25 18:41:18;;;;;;;9.77;6.40;;;;;;;3.69;100.00;96267.25;5429466;26;20002;-60
2024/04/25 18:43:45;;;;;;;14.95;8.95;;;;;;;3.45;100.00;96278.00;5420764;26;20807;-60
2024/04/25 18:46:12;;;;;;;10.82;7.50;;;;;;;3.27;100.00;96275.44;5423361;26;20045;-60
2024/04/25 18:48:39;;;;;;;9.65;4.90;;;;;;;3.11;100.00;96270.53;5425631;26;20035;-60
2024/04/25 18:51:06;;;;;;;10.50;4.05;;;;;;;2.96;100.00;96279.00;5431086;26;20315;-60
2024/04/25 18:53:33;;;;;;;8.80;4.15;;;;;;;2.98;100.00;96284.94;5435621;26;20740;-60